createdAt,value
2019-05-29T00:00:07.801Z,95094.53
2019-05-29T00:05:08.455Z,95101.34
2019-05-29T00:10:08.943Z,95109.47
2019-05-29T00:15:06.389Z,95112.77
2019-05-29T00:20:08.283Z,95117.35
2019-05-29T00:25:06.405Z,95135.79
2019-05-29T00:30:06.934Z,95138.45
2019-05-29T00:35:08.227Z,95146.80
2019-05-29T00:40:08.981Z,95145.45
2019-05-29T00:45:07.294Z,95152.77
2019-05-29T00:50:09.899Z,95146.53
2019-05-29T00:55:08.559Z,95139.04
2019-05-29T01:00:07.214Z,95136.84
2019-05-29T01:05:06.266Z,95134.15
2019-05-29T01:10:07.620Z,95133.50
2019-05-29T01:15:05.904Z,95142.98
2019-05-29T01:20:05.667Z,95137.55
2019-05-29T01:25:04.981Z,95138.91
2019-05-29T01:30:02.408Z,95143.19
2019-05-29T01:34:59.496Z,95149.70
2019-05-29T01:39:56.590Z,95149.14
2019-05-29T01:45:07.041Z,95152.57
2019-05-29T01:49:54.293Z,95158.98
2019-05-29T01:54:51.310Z,95161.37
2019-05-29T01:59:48.446Z,95165.82
2019-05-29T02:04:45.571Z,95175.17
2019-05-29T02:09:42.692Z,95186.45
2019-05-29T02:14:39.747Z,95185.08
2019-05-29T02:19:36.906Z,95187.34
2019-05-29T02:24:33.972Z,95204.86
2019-05-29T02:29:31.056Z,95219.34
2019-05-29T02:34:29.946Z,95217.14
2019-05-29T02:39:27.680Z,95223.00
2019-05-29T02:44:27.583Z,95221.84
2019-05-29T02:49:25.750Z,95219.63
2019-05-29T02:54:24.722Z,95223.75
2019-05-29T02:59:23.442Z,95234.80
2019-05-29T03:04:24.113Z,95232.28
2019-05-29T03:09:22.731Z,95235.97
2019-05-29T03:14:22.878Z,95242.69
2019-05-29T03:19:20.229Z,95250.10
2019-05-29T03:24:17.288Z,95251.91
2019-05-29T03:29:14.517Z,95257.19
2019-05-29T03:34:12.052Z,95251.98
2019-05-29T03:39:09.606Z,95270.70
2019-05-29T03:44:10.344Z,95271.56
2019-05-29T03:49:09.550Z,95277.58
2019-05-29T03:54:06.562Z,95277.66
2019-05-29T03:59:03.795Z,95281.81
2019-05-29T04:04:00.760Z,95287.05
2019-05-29T04:08:57.895Z,95292.33
2019-05-29T04:13:55.924Z,95294.84
2019-05-29T04:18:54.356Z,95304.96
2019-05-29T04:23:57.292Z,95301.23
2019-05-29T04:28:55.984Z,95305.63
2019-05-29T04:33:53.056Z,95304.85
2019-05-29T04:38:50.312Z,95308.77
2019-05-29T04:43:56.732Z,95313.67
2019-05-29T04:48:53.175Z,95316.45
2019-05-29T04:53:51.821Z,95327.41
2019-05-29T04:58:50.872Z,95332.16
2019-05-29T05:03:48.002Z,95331.15
2019-05-29T05:08:50.864Z,95341.52
2019-05-29T05:13:47.962Z,95345.01
2019-05-29T05:18:57.896Z,95356.25
2019-05-29T05:23:55.231Z,95350.16
2019-05-29T05:28:54.722Z,95352.63
2019-05-29T05:33:53.084Z,95364.12
2019-05-29T05:38:54.647Z,95364.89
2019-05-29T05:43:57.304Z,95364.53
2019-05-29T05:48:54.641Z,95364.84
2019-05-29T05:53:54.564Z,95371.99
2019-05-29T05:58:51.819Z,95373.30
2019-05-29T06:03:50.685Z,95372.33
2019-05-29T06:08:49.038Z,95374.64
2019-05-29T06:13:49.506Z,95388.38
2019-05-29T06:18:52.512Z,95311.90
2019-05-29T06:23:52.403Z,95394.70
2019-05-29T06:28:49.439Z,95407.02
2019-05-29T06:33:48.417Z,95412.02
2019-05-29T06:38:46.709Z,95408.32
2019-05-29T06:43:49.683Z,95419.63
2019-05-29T06:49:05.748Z,95421.13
2019-05-29T06:53:50.716Z,95419.78
2019-05-29T06:58:49.676Z,95424.16
2019-05-29T07:03:48.163Z,95421.73
2019-05-29T07:08:50.397Z,95411.38
2019-05-29T07:13:50.680Z,95422.00
2019-05-29T07:23:50.901Z,95431.28
2019-05-29T07:29:07.001Z,95431.66
2019-05-29T07:33:51.294Z,95431.76
2019-05-29T07:39:01.761Z,95444.38
2019-05-29T07:43:48.658Z,95452.82
2019-05-29T07:48:48.132Z,95469.27
2019-05-29T07:53:46.677Z,95475.38
2019-05-29T07:59:01.593Z,95473.34
2019-05-29T08:03:50.348Z,95474.27
2019-05-29T08:08:49.588Z,95479.84
2019-05-29T08:13:49.856Z,95489.16
2019-05-29T08:18:53.379Z,95487.59
2019-05-29T08:23:56.526Z,95485.27
2019-05-29T08:28:57.264Z,95491.44
2019-05-29T08:33:58.461Z,95499.13
2019-05-29T08:38:55.636Z,95501.54
2019-05-29T08:43:57.681Z,95506.30
2019-05-29T08:49:00.628Z,95504.87
2019-05-29T08:53:57.904Z,95485.57
2019-05-29T08:58:56.931Z,95527.62
2019-05-29T09:04:00.354Z,95528.09
2019-05-29T09:08:59.286Z,95527.02
2019-05-29T09:14:02.120Z,95524.95
2019-05-29T09:19:00.229Z,95528.29
2019-05-29T09:23:59.244Z,95528.19
2019-05-29T09:28:58.308Z,95533.05
2019-05-29T09:33:57.253Z,95538.47
2019-05-29T09:38:54.618Z,95543.61
2019-05-29T09:43:59.711Z,95550.81
2019-05-29T09:49:01.299Z,95566.48
2019-05-29T09:54:01.025Z,95561.85
2019-05-29T09:58:59.773Z,95559.55
2019-05-29T10:03:59.236Z,95569.48
2019-05-29T10:09:00.116Z,95572.27
2019-05-29T10:14:00.548Z,95577.89
2019-05-29T10:19:01.535Z,95581.88
2019-05-29T10:24:04.152Z,95582.58
2019-05-29T10:29:08.188Z,95583.66
2019-05-29T10:34:06.775Z,95577.31
2019-05-29T10:39:05.678Z,95584.16
2019-05-29T10:44:04.011Z,95592.21
2019-05-29T10:49:04.795Z,95594.20
2019-05-29T10:54:01.921Z,95600.75
2019-05-29T10:59:01.445Z,95616.53
2019-05-29T11:03:58.476Z,95609.72
2019-05-29T11:09:01.386Z,95617.61
2019-05-29T11:14:00.358Z,95630.98
2019-05-29T11:18:59.211Z,95636.13
2019-05-29T11:23:56.241Z,95637.31
2019-05-29T11:28:58.606Z,95633.00
2019-05-29T11:33:57.187Z,95643.61
2019-05-29T11:39:03.254Z,95630.59
2019-05-29T11:44:03.219Z,95644.16
2019-05-29T11:49:00.421Z,95652.54
2019-05-29T11:53:57.689Z,95653.09
2019-05-29T11:58:59.022Z,95656.03
2019-05-29T12:04:19.577Z,95658.73
2019-05-29T12:08:57.914Z,95681.02
2019-05-29T12:13:58.050Z,95683.73
2019-05-29T12:18:58.276Z,95687.05
2019-05-29T12:23:58.214Z,95691.69
2019-05-29T12:29:08.398Z,95695.34
2019-05-29T12:34:12.130Z,95698.41
2019-05-29T12:39:08.093Z,95709.83
2019-05-29T12:44:08.287Z,95728.31
2019-05-29T12:49:09.876Z,95741.89
2019-05-29T12:54:09.887Z,95744.83
2019-05-29T12:59:08.870Z,95755.28
2019-05-29T13:04:14.311Z,95758.31
2019-05-29T13:09:13.249Z,95769.75
2019-05-29T13:14:12.353Z,95779.58
2019-05-29T13:19:11.366Z,95776.34
2019-05-29T13:24:11.221Z,95774.33
2019-05-29T13:29:08.092Z,95779.31
2019-05-29T13:34:07.197Z,95773.52
2019-05-29T13:39:08.049Z,95774.50
2019-05-29T13:44:06.803Z,95772.45
2019-05-29T13:49:10.842Z,95781.60
2019-05-29T13:54:14.037Z,95784.91
2019-05-29T13:59:10.931Z,95791.42
2019-05-29T14:04:09.361Z,95795.13
2019-05-29T14:09:09.153Z,95802.19
2019-05-29T14:14:13.270Z,95805.00
2019-05-29T14:19:13.550Z,95808.36
2019-05-29T14:24:26.566Z,95809.73
2019-05-29T14:29:12.662Z,95815.45
2019-05-29T14:34:10.819Z,95820.56
2019-05-29T14:39:08.080Z,95816.94
2019-05-29T14:44:08.043Z,95819.75
2019-05-29T14:49:06.404Z,95817.14
2019-05-29T14:54:06.835Z,95830.52
2019-05-29T14:59:05.632Z,95839.33
2019-05-29T15:04:03.623Z,95846.21
2019-05-29T15:09:03.571Z,95849.53
2019-05-29T15:14:06.009Z,95847.61
2019-05-29T15:19:06.776Z,95850.34
2019-05-29T15:24:05.694Z,95866.16
2019-05-29T15:29:04.251Z,95867.08
2019-05-29T15:34:02.906Z,95868.05
2019-05-29T15:39:06.488Z,95873.22
2019-05-29T15:44:04.656Z,95872.43
2019-05-29T15:49:02.833Z,95883.78
2019-05-29T15:53:59.965Z,95897.40
2019-05-29T15:58:58.931Z,95898.04
2019-05-29T16:03:56.089Z,95910.28
2019-05-29T16:08:55.281Z,95908.58
2019-05-29T16:13:55.143Z,95912.02
2019-05-29T16:18:53.096Z,95932.13
2019-05-29T16:23:52.930Z,95940.20
2019-05-29T16:28:49.976Z,95950.39
2019-05-29T16:33:47.583Z,95951.92
2019-05-29T16:38:51.361Z,95956.41
2019-05-29T16:43:50.931Z,95952.17
2019-05-29T16:48:47.989Z,95956.08
2019-05-29T16:53:45.129Z,95961.63
2019-05-29T16:58:42.221Z,95969.21
2019-05-29T17:03:39.553Z,95979.20
2019-05-29T17:08:36.781Z,95974.30
2019-05-29T17:13:34.502Z,95982.89
2019-05-29T17:18:33.775Z,95981.80
2019-05-29T17:23:31.586Z,95983.66
2019-05-29T17:28:29.141Z,95979.94
2019-05-29T17:33:26.392Z,95984.00
2019-05-29T17:38:23.488Z,95987.84
2019-05-29T17:43:24.564Z,95995.58
2019-05-29T17:48:20.027Z,96001.86
2019-05-29T17:53:17.800Z,96005.16
2019-05-29T17:58:18.381Z,96016.29
2019-05-29T18:03:16.223Z,96026.38
2019-05-29T18:08:13.341Z,96027.34
2019-05-29T18:13:10.404Z,96033.66
2019-05-29T18:18:07.542Z,96041.94
2019-05-29T18:23:06.991Z,96058.36
2019-05-29T18:28:09.203Z,96060.79
2019-05-29T18:33:06.442Z,96069.20
2019-05-29T18:38:05.141Z,96085.69
2019-05-29T18:43:02.444Z,96082.38
2019-05-29T18:48:01.424Z,96092.02
2019-05-29T18:52:58.634Z,96093.70
2019-05-29T18:57:55.794Z,96097.23
2019-05-29T19:02:54.654Z,96099.59
2019-05-29T19:07:51.739Z,96114.31
2019-05-29T19:12:48.993Z,96111.33
2019-05-29T19:17:46.063Z,96122.05
2019-05-29T19:22:47.799Z,96123.55
2019-05-29T19:27:45.487Z,96128.33
2019-05-29T19:32:44.695Z,96129.12
2019-05-29T19:37:41.814Z,96138.48
2019-05-29T19:42:40.926Z,96143.47
2019-05-29T19:47:38.953Z,96152.60
2019-05-29T19:52:38.432Z,96160.42
2019-05-29T19:57:52.499Z,96154.56
2019-05-29T20:02:36.795Z,96170.69
2019-05-29T20:07:33.874Z,96171.88
2019-05-29T20:12:31.603Z,96176.81
2019-05-29T20:17:29.839Z,96167.05
2019-05-29T20:22:26.996Z,96177.16
2019-05-29T20:27:25.922Z,96180.02
2019-05-29T20:32:23.142Z,96181.84
2019-05-29T20:37:21.975Z,96177.91
2019-05-29T20:42:20.188Z,96178.62
2019-05-29T20:47:17.395Z,96173.02
2019-05-29T20:52:15.461Z,96193.13
2019-05-29T20:57:12.527Z,96187.02
2019-05-29T21:02:09.706Z,96196.86
2019-05-29T21:07:07.041Z,96204.08
2019-05-29T21:12:04.863Z,96207.40
2019-05-29T21:17:02.345Z,96211.84
2019-05-29T21:22:01.915Z,96203.61
2019-05-29T21:26:58.954Z,96201.53
2019-05-29T21:31:56.840Z,96204.22
2019-05-29T21:36:53.884Z,96208.45
2019-05-29T21:41:51.022Z,96200.72
2019-05-29T21:46:51.003Z,96196.80
2019-05-29T21:51:48.557Z,96200.34
2019-05-29T22:02:03.095Z,96211.77
2019-05-29T22:07:00.206Z,96209.30
2019-05-29T22:11:58.454Z,96217.56
2019-05-29T22:16:56.844Z,96219.20
2019-05-29T22:21:54.988Z,96220.87
2019-05-29T22:26:53.146Z,96216.39
2019-05-29T22:31:51.343Z,96212.34
2019-05-29T22:36:48.641Z,96214.77
2019-05-29T22:41:47.594Z,96216.77
2019-05-29T22:46:44.797Z,96211.97
2019-05-29T22:51:41.970Z,96202.50
2019-05-29T22:56:39.188Z,96203.35
2019-05-29T23:01:37.232Z,96197.26
2019-05-29T23:06:35.361Z,96210.83
2019-05-29T23:11:32.489Z,96198.29
2019-05-29T23:16:34.651Z,96207.93
2019-05-29T23:21:31.486Z,96210.91
2019-05-29T23:26:28.570Z,96205.66
2019-05-29T23:31:26.089Z,96206.80
2019-05-29T23:36:23.388Z,96205.62
2019-05-29T23:41:20.488Z,96203.73
2019-05-29T23:46:17.612Z,96193.64
2019-05-29T23:51:14.725Z,96188.94
2019-05-29T23:56:11.818Z,96185.73
